This is the latest recevied weather packets stored in our database for station/object HA9OZD-17. If no packets are shown the sender has not sent any weather packets the latest 10 day(s).
| Time | Temp. | Humidity | Pressure | Rain* | Wind** | Luminosity | Snow |
|---|---|---|---|---|---|---|---|
| 1777581705 | 9.44° C | 30% | 901 hPa | - | - | - | - |
| 1777578104 | 10.56° C | 28% | 901 hPa | - | - | - | - |
| 1777574503 | 12.78° C | 24% | 901 hPa | - | - | - | - |
| 1777570901 | 16.11° C | 19% | 900 hPa | - | - | - | - |
| 1777567300 | 18.89° C | 16% | 900 hPa | - | - | - | - |
| 1777563699 | 20° C | 15% | 900 hPa | - | - | - | - |
| 1777560098 | 21.11° C | 14% | 900 hPa | - | - | - | - |
| 1777556497 | 24.44° C | 11% | 900 hPa | - | - | - | - |
| 1777552895 | 25.56° C | 10% | 900 hPa | - | - | - | - |
| 1777549294 | 18.33° C | 18% | 901 hPa | - | - | - | - |
| 1777545693 | 8.89° C | 31% | 901 hPa | - | - | - | - |
| 1777542092 | 7.78° C | 33% | 901 hPa | - | - | - | - |
| 1777538491 | 6.67° C | 35% | 901 hPa | - | - | - | - |
| 1777534889 | 6.11° C | 36% | 901 hPa | - | - | - | - |
| 1777531288 | 5.56° C | 36% | 901 hPa | - | - | - | - |
| 1777527687 | 5.56° C | 37% | 900 hPa | - | - | - | - |
| 1777524086 | 5° C | 38% | 899 hPa | - | - | - | - |
| 1777520485 | 5° C | 38% | 899 hPa | - | - | - | - |
| 1777516884 | 5° C | 38% | 899 hPa | - | - | - | - |
| 1777513268 | 6.11° C | 36% | 899 hPa | - | - | - | - |
| 1777509667 | 6.67° C | 35% | 899 hPa | - | - | - | - |
| 1777506065 | 7.22° C | 34% | 899 hPa | - | - | - | - |
| 1777502464 | 7.78° C | 33% | 899 hPa | - | - | - | - |
| 1777498863 | 8.33° C | 33% | 898 hPa | - | - | - | - |
| 1777495262 | 8.89° C | 33% | 898 hPa | - | - | - | - |
* Rain since midnight (hover to see other rain measurements)
** Current wind speed in m/s (hover to see current wind gust speed)